sensor_id;sensor_type;location;lat;lon;timestamp;temperature;humidity
14985;DHT22;7588;62.368;25.902;2022-10-30T00:00:20;2.60;99.90
14985;DHT22;7588;62.368;25.902;2022-10-30T00:02:47;2.50;99.90
14985;DHT22;7588;62.368;25.902;2022-10-30T00:05:14;2.50;99.90
14985;DHT22;7588;62.368;25.902;2022-10-30T00:07:40;2.50;99.90
14985;DHT22;7588;62.368;25.902;2022-10-30T00:10:06;2.40;99.90
14985;DHT22;7588;62.368;25.902;2022-10-30T00:12:31;2.50;99.90
14985;DHT22;7588;62.368;25.902;2022-10-30T00:14:57;2.40;99.90
14985;DHT22;7588;62.368;25.902;2022-10-30T00:17:23;2.40;99.90
14985;DHT22;7588;62.368;25.902;2022-10-30T00:19:49;2.50;99.90
14985;DHT22;7588;62.368;25.902;2022-10-30T00:22:15;2.50;99.90
14985;DHT22;7588;62.368;25.902;2022-10-30T00:24:40;2.40;99.90
14985;DHT22;7588;62.368;25.902;2022-10-30T00:27:06;2.30;99.90
14985;DHT22;7588;62.368;25.902;2022-10-30T00:29:32;2.30;99.90
14985;DHT22;7588;62.368;25.902;2022-10-30T00:31:57;2.30;99.90
14985;DHT22;7588;62.368;25.902;2022-10-30T00:34:23;2.30;99.90
14985;DHT22;7588;62.368;25.902;2022-10-30T00:36:49;2.40;99.90
14985;DHT22;7588;62.368;25.902;2022-10-30T00:39:15;2.40;99.90
14985;DHT22;7588;62.368;25.902;2022-10-30T00:41:41;2.40;99.90
14985;DHT22;7588;62.368;25.902;2022-10-30T00:44:36;2.40;99.90
14985;DHT22;7588;62.368;25.902;2022-10-30T00:47:09;2.30;99.90
14985;DHT22;7588;62.368;25.902;2022-10-30T00:49:38;2.20;99.90
14985;DHT22;7588;62.368;25.902;2022-10-30T00:52:08;2.20;99.90
14985;DHT22;7588;62.368;25.902;2022-10-30T00:54:35;2.10;99.90
14985;DHT22;7588;62.368;25.902;2022-10-30T00:57:02;2.20;99.90
14985;DHT22;7588;62.368;25.902;2022-10-30T00:59:32;2.20;99.90
14985;DHT22;7588;62.368;25.902;2022-10-30T01:02:00;2.20;99.90
14985;DHT22;7588;62.368;25.902;2022-10-30T01:04:27;2.20;99.90
14985;DHT22;7588;62.368;25.902;2022-10-30T01:06:53;2.20;99.90
14985;DHT22;7588;62.368;25.902;2022-10-30T01:09:20;2.20;99.90
14985;DHT22;7588;62.368;25.902;2022-10-30T01:11:46;2.10;99.90
14985;DHT22;7588;62.368;25.902;2022-10-30T01:14:14;2.10;99.90
14985;DHT22;7588;62.368;25.902;2022-10-30T01:32:55;2.10;99.90
14985;DHT22;7588;62.368;25.902;2022-10-30T01:35:33;2.10;99.90
14985;DHT22;7588;62.368;25.902;2022-10-30T01:38:11;2.10;99.90
14985;DHT22;7588;62.368;25.902;2022-10-30T01:40:43;2.10;99.90
14985;DHT22;7588;62.368;25.902;2022-10-30T01:43:09;2.10;99.90
14985;DHT22;7588;62.368;25.902;2022-10-30T01:51:50;2.00;99.90
14985;DHT22;7588;62.368;25.902;2022-10-30T01:57:16;2.00;99.90
14985;DHT22;7588;62.368;25.902;2022-10-30T02:02:30;1.90;99.90
14985;DHT22;7588;62.368;25.902;2022-10-30T02:04:58;1.90;99.90
14985;DHT22;7588;62.368;25.902;2022-10-30T02:07:24;1.80;99.90
14985;DHT22;7588;62.368;25.902;2022-10-30T02:09:50;1.70;99.90
14985;DHT22;7588;62.368;25.902;2022-10-30T02:12:17;1.70;99.90
14985;DHT22;7588;62.368;25.902;2022-10-30T02:14:47;1.70;99.90
14985;DHT22;7588;62.368;25.902;2022-10-30T02:17:15;1.70;99.90
14985;DHT22;7588;62.368;25.902;2022-10-30T02:19:41;1.70;99.90
14985;DHT22;7588;62.368;25.902;2022-10-30T02:22:07;1.70;99.90
14985;DHT22;7588;62.368;25.902;2022-10-30T02:24:33;1.70;99.90
14985;DHT22;7588;62.368;25.902;2022-10-30T02:26:59;1.60;99.90
14985;DHT22;7588;62.368;25.902;2022-10-30T02:29:25;1.50;99.90
14985;DHT22;7588;62.368;25.902;2022-10-30T02:31:51;1.60;99.90
14985;DHT22;7588;62.368;25.902;2022-10-30T02:34:16;1.50;99.90
14985;DHT22;7588;62.368;25.902;2022-10-30T02:36:42;1.50;99.90
14985;DHT22;7588;62.368;25.902;2022-10-30T02:39:08;1.50;99.90
14985;DHT22;7588;62.368;25.902;2022-10-30T02:41:34;1.50;99.90
14985;DHT22;7588;62.368;25.902;2022-10-30T02:44:00;1.40;99.90
14985;DHT22;7588;62.368;25.902;2022-10-30T02:46:26;1.40;99.90
14985;DHT22;7588;62.368;25.902;2022-10-30T02:48:52;1.40;99.90
14985;DHT22;7588;62.368;25.902;2022-10-30T02:51:17;1.40;99.90
14985;DHT22;7588;62.368;25.902;2022-10-30T02:53:43;1.20;99.90
14985;DHT22;7588;62.368;25.902;2022-10-30T02:56:12;1.20;99.90
14985;DHT22;7588;62.368;25.902;2022-10-30T02:58:39;1.20;99.90
14985;DHT22;7588;62.368;25.902;2022-10-30T03:01:09;1.20;99.90
14985;DHT22;7588;62.368;25.902;2022-10-30T03:03:36;1.30;99.90
14985;DHT22;7588;62.368;25.902;2022-10-30T03:06:03;1.30;99.90
14985;DHT22;7588;62.368;25.902;2022-10-30T03:08:29;1.30;99.90
14985;DHT22;7588;62.368;25.902;2022-10-30T03:11:04;1.30;99.90
14985;DHT22;7588;62.368;25.902;2022-10-30T03:13:31;1.30;99.90
14985;DHT22;7588;62.368;25.902;2022-10-30T03:16:03;1.30;99.90
14985;DHT22;7588;62.368;25.902;2022-10-30T03:18:29;1.30;99.90
14985;DHT22;7588;62.368;25.902;2022-10-30T03:20:59;1.30;99.90
14985;DHT22;7588;62.368;25.902;2022-10-30T03:23:26;1.30;99.90
14985;DHT22;7588;62.368;25.902;2022-10-30T03:25:56;1.20;99.90
14985;DHT22;7588;62.368;25.902;2022-10-30T03:28:24;1.30;99.90
14985;DHT22;7588;62.368;25.902;2022-10-30T03:30:51;1.30;99.90
14985;DHT22;7588;62.368;25.902;2022-10-30T03:33:22;1.30;99.90
14985;DHT22;7588;62.368;25.902;2022-10-30T03:35:48;1.30;99.90
14985;DHT22;7588;62.368;25.902;2022-10-30T03:38:13;1.30;99.90
14985;DHT22;7588;62.368;25.902;2022-10-30T03:40:39;1.40;99.90
14985;DHT22;7588;62.368;25.902;2022-10-30T03:43:06;1.40;99.90
14985;DHT22;7588;62.368;25.902;2022-10-30T03:45:34;1.40;99.90
14985;DHT22;7588;62.368;25.902;2022-10-30T03:48:01;1.40;99.90
14985;DHT22;7588;62.368;25.902;2022-10-30T03:50:28;1.30;99.90
14985;DHT22;7588;62.368;25.902;2022-10-30T03:52:55;1.30;99.90
14985;DHT22;7588;62.368;25.902;2022-10-30T03:55:21;1.30;99.90
14985;DHT22;7588;62.368;25.902;2022-10-30T03:57:47;1.20;99.90
14985;DHT22;7588;62.368;25.902;2022-10-30T04:00:14;1.30;99.90
14985;DHT22;7588;62.368;25.902;2022-10-30T04:02:47;1.20;99.90
14985;DHT22;7588;62.368;25.902;2022-10-30T04:05:15;1.20;99.90
14985;DHT22;7588;62.368;25.902;2022-10-30T04:07:41;1.20;99.90
14985;DHT22;7588;62.368;25.902;2022-10-30T04:10:07;1.20;99.90
14985;DHT22;7588;62.368;25.902;2022-10-30T04:12:33;1.30;99.90
14985;DHT22;7588;62.368;25.902;2022-10-30T04:14:59;1.30;99.90
14985;DHT22;7588;62.368;25.902;2022-10-30T04:17:24;1.30;99.90
14985;DHT22;7588;62.368;25.902;2022-10-30T04:19:50;1.30;99.90
14985;DHT22;7588;62.368;25.902;2022-10-30T04:22:16;1.40;99.90
14985;DHT22;7588;62.368;25.902;2022-10-30T04:24:41;1.40;99.90
14985;DHT22;7588;62.368;25.902;2022-10-30T04:27:07;1.30;99.90
14985;DHT22;7588;62.368;25.902;2022-10-30T04:29:33;1.30;99.90
14985;DHT22;7588;62.368;25.902;2022-10-30T04:31:58;1.20;99.90
14985;DHT22;7588;62.368;25.902;2022-10-30T04:34:24;1.20;99.90
14985;DHT22;7588;62.368;25.902;2022-10-30T04:36:50;1.20;99.90
14985;DHT22;7588;62.368;25.902;2022-10-30T04:39:15;1.20;99.90
14985;DHT22;7588;62.368;25.902;2022-10-30T04:41:41;1.30;99.90
14985;DHT22;7588;62.368;25.902;2022-10-30T04:44:07;1.20;99.90
14985;DHT22;7588;62.368;25.902;2022-10-30T04:46:33;1.10;99.90
14985;DHT22;7588;62.368;25.902;2022-10-30T04:48:58;1.00;99.90
14985;DHT22;7588;62.368;25.902;2022-10-30T04:51:24;1.00;99.90
14985;DHT22;7588;62.368;25.902;2022-10-30T04:53:50;0.90;99.90
14985;DHT22;7588;62.368;25.902;2022-10-30T04:56:16;0.90;99.90
14985;DHT22;7588;62.368;25.902;2022-10-30T04:58:42;0.90;99.90
14985;DHT22;7588;62.368;25.902;2022-10-30T05:01:07;0.90;99.90
14985;DHT22;7588;62.368;25.902;2022-10-30T05:03:33;1.00;99.90
14985;DHT22;7588;62.368;25.902;2022-10-30T05:06:04;1.00;99.90
14985;DHT22;7588;62.368;25.902;2022-10-30T05:08:30;1.10;99.90
14985;DHT22;7588;62.368;25.902;2022-10-30T05:10:56;1.10;99.90
14985;DHT22;7588;62.368;25.902;2022-10-30T05:13:23;1.10;99.90
14985;DHT22;7588;62.368;25.902;2022-10-30T05:15:48;1.10;99.90
14985;DHT22;7588;62.368;25.902;2022-10-30T05:18:14;1.10;99.90
14985;DHT22;7588;62.368;25.902;2022-10-30T05:20:40;1.10;99.90
14985;DHT22;7588;62.368;25.902;2022-10-30T05:23:06;1.10;99.90
14985;DHT22;7588;62.368;25.902;2022-10-30T05:25:31;1.10;99.90
14985;DHT22;7588;62.368;25.902;2022-10-30T05:28:02;1.20;99.90
14985;DHT22;7588;62.368;25.902;2022-10-30T05:30:29;1.20;99.90
14985;DHT22;7588;62.368;25.902;2022-10-30T05:33:00;1.10;99.90
14985;DHT22;7588;62.368;25.902;2022-10-30T05:35:27;1.20;99.90
14985;DHT22;7588;62.368;25.902;2022-10-30T05:37:53;1.30;99.90
14985;DHT22;7588;62.368;25.902;2022-10-30T05:40:18;1.20;99.90
14985;DHT22;7588;62.368;25.902;2022-10-30T05:42:48;1.20;99.90
14985;DHT22;7588;62.368;25.902;2022-10-30T05:45:14;1.20;99.90
14985;DHT22;7588;62.368;25.902;2022-10-30T05:47:40;1.20;99.90
14985;DHT22;7588;62.368;25.902;2022-10-30T05:50:07;1.20;99.90
14985;DHT22;7588;62.368;25.902;2022-10-30T05:52:33;1.20;99.90
14985;DHT22;7588;62.368;25.902;2022-10-30T05:54:59;1.20;99.90
14985;DHT22;7588;62.368;25.902;2022-10-30T05:57:29;1.10;99.90
14985;DHT22;7588;62.368;25.902;2022-10-30T05:59:55;1.10;99.90
14985;DHT22;7588;62.368;25.902;2022-10-30T06:02:21;1.00;99.90
14985;DHT22;7588;62.368;25.902;2022-10-30T06:04:46;1.10;99.90
14985;DHT22;7588;62.368;25.902;2022-10-30T06:07:12;1.10;99.90
14985;DHT22;7588;62.368;25.902;2022-10-30T06:09:38;1.00;99.90
14985;DHT22;7588;62.368;25.902;2022-10-30T06:12:04;1.00;99.90
14985;DHT22;7588;62.368;25.902;2022-10-30T06:14:30;1.00;99.90
14985;DHT22;7588;62.368;25.902;2022-10-30T06:16:56;1.10;99.90
14985;DHT22;7588;62.368;25.902;2022-10-30T06:19:22;1.00;99.90
14985;DHT22;7588;62.368;25.902;2022-10-30T06:21:48;1.10;99.90
14985;DHT22;7588;62.368;25.902;2022-10-30T06:24:13;1.10;99.90
14985;DHT22;7588;62.368;25.902;2022-10-30T06:26:39;1.20;99.90
14985;DHT22;7588;62.368;25.902;2022-10-30T06:29:05;1.10;99.90
14985;DHT22;7588;62.368;25.902;2022-10-30T06:31:31;1.20;99.90
14985;DHT22;7588;62.368;25.902;2022-10-30T06:33:57;1.20;99.90
14985;DHT22;7588;62.368;25.902;2022-10-30T06:36:22;1.30;99.90
14985;DHT22;7588;62.368;25.902;2022-10-30T06:38:48;1.30;99.90
14985;DHT22;7588;62.368;25.902;2022-10-30T06:41:14;1.40;99.90
14985;DHT22;7588;62.368;25.902;2022-10-30T06:43:40;1.40;99.90
14985;DHT22;7588;62.368;25.902;2022-10-30T06:46:05;1.50;99.90
14985;DHT22;7588;62.368;25.902;2022-10-30T06:48:31;1.50;99.90
14985;DHT22;7588;62.368;25.902;2022-10-30T06:50:58;1.50;99.90
14985;DHT22;7588;62.368;25.902;2022-10-30T06:53:24;1.50;99.90
14985;DHT22;7588;62.368;25.902;2022-10-30T06:55:55;1.50;99.90
14985;DHT22;7588;62.368;25.902;2022-10-30T06:58:21;1.60;99.90
14985;DHT22;7588;62.368;25.902;2022-10-30T07:00:47;1.70;99.90
14985;DHT22;7588;62.368;25.902;2022-10-30T07:03:13;1.70;99.90
14985;DHT22;7588;62.368;25.902;2022-10-30T07:05:38;1.80;99.90
14985;DHT22;7588;62.368;25.902;2022-10-30T07:08:04;1.80;99.90
14985;DHT22;7588;62.368;25.902;2022-10-30T07:10:30;1.90;99.90
14985;DHT22;7588;62.368;25.902;2022-10-30T07:12:56;1.90;99.90
14985;DHT22;7588;62.368;25.902;2022-10-30T07:15:23;1.90;99.90
14985;DHT22;7588;62.368;25.902;2022-10-30T07:18:00;1.90;99.90
14985;DHT22;7588;62.368;25.902;2022-10-30T07:20:29;1.90;99.90
14985;DHT22;7588;62.368;25.902;2022-10-30T07:22:55;2.00;99.90
14985;DHT22;7588;62.368;25.902;2022-10-30T07:25:21;2.10;99.90
14985;DHT22;7588;62.368;25.902;2022-10-30T07:27:49;2.10;99.90
14985;DHT22;7588;62.368;25.902;2022-10-30T07:30:17;2.20;99.90
14985;DHT22;7588;62.368;25.902;2022-10-30T07:32:43;2.20;99.90
14985;DHT22;7588;62.368;25.902;2022-10-30T07:35:11;2.20;99.90
14985;DHT22;7588;62.368;25.902;2022-10-30T07:37:38;2.10;99.90
14985;DHT22;7588;62.368;25.902;2022-10-30T07:40:04;2.20;99.90
14985;DHT22;7588;62.368;25.902;2022-10-30T07:42:31;2.20;99.90
14985;DHT22;7588;62.368;25.902;2022-10-30T07:44:57;2.20;99.90
14985;DHT22;7588;62.368;25.902;2022-10-30T07:47:23;2.20;99.90
14985;DHT22;7588;62.368;25.902;2022-10-30T07:49:48;2.20;99.90
14985;DHT22;7588;62.368;25.902;2022-10-30T07:52:14;2.30;99.90
14985;DHT22;7588;62.368;25.902;2022-10-30T07:54:40;2.40;99.90
14985;DHT22;7588;62.368;25.902;2022-10-30T07:57:06;2.30;99.90
14985;DHT22;7588;62.368;25.902;2022-10-30T07:59:32;2.40;99.90
14985;DHT22;7588;62.368;25.902;2022-10-30T08:01:58;2.50;99.90
14985;DHT22;7588;62.368;25.902;2022-10-30T08:04:25;2.50;99.90
14985;DHT22;7588;62.368;25.902;2022-10-30T08:06:52;2.60;99.90
14985;DHT22;7588;62.368;25.902;2022-10-30T08:09:17;2.60;99.90
14985;DHT22;7588;62.368;25.902;2022-10-30T08:11:43;2.70;99.90
14985;DHT22;7588;62.368;25.902;2022-10-30T08:14:09;2.70;99.90
14985;DHT22;7588;62.368;25.902;2022-10-30T08:16:34;2.80;99.90
14985;DHT22;7588;62.368;25.902;2022-10-30T08:19:00;2.80;99.90
14985;DHT22;7588;62.368;25.902;2022-10-30T08:21:26;2.70;99.90
14985;DHT22;7588;62.368;25.902;2022-10-30T08:23:52;2.70;99.90
14985;DHT22;7588;62.368;25.902;2022-10-30T08:26:18;2.60;99.90
14985;DHT22;7588;62.368;25.902;2022-10-30T08:28:43;2.50;99.90
14985;DHT22;7588;62.368;25.902;2022-10-30T08:31:09;2.50;99.90
14985;DHT22;7588;62.368;25.902;2022-10-30T08:33:35;2.60;99.90
14985;DHT22;7588;62.368;25.902;2022-10-30T08:36:01;2.70;99.90
14985;DHT22;7588;62.368;25.902;2022-10-30T08:38:28;2.80;99.90
14985;DHT22;7588;62.368;25.902;2022-10-30T08:40:54;2.90;99.90
14985;DHT22;7588;62.368;25.902;2022-10-30T08:43:20;2.90;99.90
14985;DHT22;7588;62.368;25.902;2022-10-30T08:45:46;3.00;99.90
14985;DHT22;7588;62.368;25.902;2022-10-30T08:48:14;3.10;99.90
14985;DHT22;7588;62.368;25.902;2022-10-30T08:50:40;3.10;99.90
14985;DHT22;7588;62.368;25.902;2022-10-30T08:53:10;3.20;99.90
14985;DHT22;7588;62.368;25.902;2022-10-30T08:55:36;3.30;99.90
14985;DHT22;7588;62.368;25.902;2022-10-30T08:58:02;3.30;99.90
14985;DHT22;7588;62.368;25.902;2022-10-30T09:00:28;3.40;99.90
14985;DHT22;7588;62.368;25.902;2022-10-30T09:02:54;3.50;99.90
14985;DHT22;7588;62.368;25.902;2022-10-30T09:05:20;3.50;99.90
14985;DHT22;7588;62.368;25.902;2022-10-30T09:07:46;3.50;99.90
14985;DHT22;7588;62.368;25.902;2022-10-30T09:10:13;3.50;99.90
14985;DHT22;7588;62.368;25.902;2022-10-30T09:12:40;3.60;99.90
14985;DHT22;7588;62.368;25.902;2022-10-30T09:15:06;3.60;99.90
14985;DHT22;7588;62.368;25.902;2022-10-30T09:17:32;3.80;99.90
14985;DHT22;7588;62.368;25.902;2022-10-30T09:19:58;3.80;99.90
14985;DHT22;7588;62.368;25.902;2022-10-30T09:22:24;3.80;99.90
14985;DHT22;7588;62.368;25.902;2022-10-30T09:24:49;3.80;99.90
14985;DHT22;7588;62.368;25.902;2022-10-30T09:27:15;3.80;99.90
14985;DHT22;7588;62.368;25.902;2022-10-30T09:29:41;3.80;99.90
14985;DHT22;7588;62.368;25.902;2022-10-30T09:32:08;3.80;99.90
14985;DHT22;7588;62.368;25.902;2022-10-30T09:34:35;3.80;99.90
14985;DHT22;7588;62.368;25.902;2022-10-30T09:37:02;3.80;99.90
14985;DHT22;7588;62.368;25.902;2022-10-30T09:39:28;3.70;99.90
14985;DHT22;7588;62.368;25.902;2022-10-30T10:01:01;3.70;99.90
14985;DHT22;7588;62.368;25.902;2022-10-30T10:06:40;3.80;99.90
14985;DHT22;7588;62.368;25.902;2022-10-30T10:09:20;3.80;99.90
14985;DHT22;7588;62.368;25.902;2022-10-30T10:11:59;3.90;99.90
14985;DHT22;7588;62.368;25.902;2022-10-30T10:14:34;3.90;99.90
14985;DHT22;7588;62.368;25.902;2022-10-30T10:17:02;4.00;99.90
14985;DHT22;7588;62.368;25.902;2022-10-30T10:19:36;4.00;99.90
14985;DHT22;7588;62.368;25.902;2022-10-30T10:22:19;4.00;99.90
14985;DHT22;7588;62.368;25.902;2022-10-30T10:24:46;4.00;99.90
14985;DHT22;7588;62.368;25.902;2022-10-30T10:30:19;4.00;99.90
14985;DHT22;7588;62.368;25.902;2022-10-30T10:33:14;4.00;99.90
14985;DHT22;7588;62.368;25.902;2022-10-30T10:52:03;4.00;99.90
14985;DHT22;7588;62.368;25.902;2022-10-30T10:54:43;4.00;99.90
14985;DHT22;7588;62.368;25.902;2022-10-30T10:57:33;4.00;99.90
14985;DHT22;7588;62.368;25.902;2022-10-30T11:00:12;4.00;99.90
14985;DHT22;7588;62.368;25.902;2022-10-30T11:02:43;4.00;99.90
14985;DHT22;7588;62.368;25.902;2022-10-30T11:07:50;4.00;99.90
14985;DHT22;7588;62.368;25.902;2022-10-30T11:10:18;3.90;99.90
14985;DHT22;7588;62.368;25.902;2022-10-30T11:12:44;4.00;99.90
14985;DHT22;7588;62.368;25.902;2022-10-30T11:18:03;4.00;99.90
14985;DHT22;7588;62.368;25.902;2022-10-30T11:20:37;4.00;99.90
14985;DHT22;7588;62.368;25.902;2022-10-30T11:23:34;3.90;99.90
14985;DHT22;7588;62.368;25.902;2022-10-30T11:26:04;3.80;99.90
14985;DHT22;7588;62.368;25.902;2022-10-30T11:31:27;3.80;99.90
14985;DHT22;7588;62.368;25.902;2022-10-30T11:36:47;3.70;99.90
14985;DHT22;7588;62.368;25.902;2022-10-30T11:39:29;3.90;99.90
14985;DHT22;7588;62.368;25.902;2022-10-30T11:41:56;4.40;99.90
14985;DHT22;7588;62.368;25.902;2022-10-30T11:44:32;5.20;99.90
14985;DHT22;7588;62.368;25.902;2022-10-30T11:46:58;5.80;99.90
14985;DHT22;7588;62.368;25.902;2022-10-30T11:51:56;6.60;97.80
14985;DHT22;7588;62.368;25.902;2022-10-30T11:54:22;6.50;98.50
14985;DHT22;7588;62.368;25.902;2022-10-30T11:56:49;6.50;98.80
14985;DHT22;7588;62.368;25.902;2022-10-30T11:59:20;6.20;98.20
14985;DHT22;7588;62.368;25.902;2022-10-30T12:01:58;6.00;98.90
14985;DHT22;7588;62.368;25.902;2022-10-30T12:04:26;5.90;99.20
14985;DHT22;7588;62.368;25.902;2022-10-30T12:07:19;5.80;99.50
14985;DHT22;7588;62.368;25.902;2022-10-30T12:09:48;5.50;99.50
14985;DHT22;7588;62.368;25.902;2022-10-30T12:12:35;5.30;99.80
14985;DHT22;7588;62.368;25.902;2022-10-30T12:17:58;5.00;99.90
14985;DHT22;7588;62.368;25.902;2022-10-30T12:20:25;4.80;99.90
14985;DHT22;7588;62.368;25.902;2022-10-30T12:22:51;4.70;99.90
14985;DHT22;7588;62.368;25.902;2022-10-30T12:25:27;4.60;99.90
14985;DHT22;7588;62.368;25.902;2022-10-30T12:28:05;4.40;99.90
14985;DHT22;7588;62.368;25.902;2022-10-30T12:30:47;4.40;99.90
14985;DHT22;7588;62.368;25.902;2022-10-30T12:33:24;4.40;99.90
14985;DHT22;7588;62.368;25.902;2022-10-30T12:35:58;4.60;99.90
14985;DHT22;7588;62.368;25.902;2022-10-30T12:44:15;5.50;99.90
14985;DHT22;7588;62.368;25.902;2022-10-30T12:47:04;5.50;99.60
14985;DHT22;7588;62.368;25.902;2022-10-30T12:55:42;6.20;98.90
14985;DHT22;7588;62.368;25.902;2022-10-30T13:01:08;6.40;98.70
14985;DHT22;7588;62.368;25.902;2022-10-30T13:04:42;6.40;98.70
14985;DHT22;7588;62.368;25.902;2022-10-30T13:07:08;6.50;98.90
14985;DHT22;7588;62.368;25.902;2022-10-30T13:09:41;6.50;98.60
14985;DHT22;7588;62.368;25.902;2022-10-30T13:12:20;6.50;97.90
14985;DHT22;7588;62.368;25.902;2022-10-30T13:14:54;6.10;98.60
14985;DHT22;7588;62.368;25.902;2022-10-30T13:17:22;5.80;99.40
14985;DHT22;7588;62.368;25.902;2022-10-30T13:19:48;5.70;99.80
14985;DHT22;7588;62.368;25.902;2022-10-30T13:22:31;5.90;99.90
14985;DHT22;7588;62.368;25.902;2022-10-30T13:27:56;6.00;99.90
14985;DHT22;7588;62.368;25.902;2022-10-30T13:30:29;5.90;99.90
14985;DHT22;7588;62.368;25.902;2022-10-30T13:44:24;5.20;99.90
14985;DHT22;7588;62.368;25.902;2022-10-30T13:50:02;5.00;99.90
14985;DHT22;7588;62.368;25.902;2022-10-30T13:52:32;5.00;99.90
14985;DHT22;7588;62.368;25.902;2022-10-30T13:55:08;4.90;99.90
14985;DHT22;7588;62.368;25.902;2022-10-30T14:11:12;4.00;99.90
14985;DHT22;7588;62.368;25.902;2022-10-30T14:13:56;3.90;99.90
14985;DHT22;7588;62.368;25.902;2022-10-30T14:16:41;3.90;99.90
14985;DHT22;7588;62.368;25.902;2022-10-30T14:19:15;3.80;99.90
14985;DHT22;7588;62.368;25.902;2022-10-30T14:21:55;3.80;99.90
14985;DHT22;7588;62.368;25.902;2022-10-30T14:24:27;3.70;99.90
14985;DHT22;7588;62.368;25.902;2022-10-30T14:34:55;3.70;99.90
14985;DHT22;7588;62.368;25.902;2022-10-30T14:39:54;3.50;99.90
14985;DHT22;7588;62.368;25.902;2022-10-30T14:58:24;3.00;99.90
14985;DHT22;7588;62.368;25.902;2022-10-30T15:06:01;2.70;99.90
14985;DHT22;7588;62.368;25.902;2022-10-30T15:11:34;2.60;99.90
14985;DHT22;7588;62.368;25.902;2022-10-30T15:14:09;2.50;99.90
14985;DHT22;7588;62.368;25.902;2022-10-30T15:16:38;2.40;99.90
14985;DHT22;7588;62.368;25.902;2022-10-30T15:19:11;2.30;99.90
14985;DHT22;7588;62.368;25.902;2022-10-30T15:21:47;2.20;99.90
14985;DHT22;7588;62.368;25.902;2022-10-30T15:24:16;2.20;99.90
14985;DHT22;7588;62.368;25.902;2022-10-30T15:26:52;2.20;99.90
14985;DHT22;7588;62.368;25.902;2022-10-30T15:29:21;2.20;99.90
14985;DHT22;7588;62.368;25.902;2022-10-30T15:34:29;2.20;99.90
14985;DHT22;7588;62.368;25.902;2022-10-30T15:36:56;2.20;99.90
14985;DHT22;7588;62.368;25.902;2022-10-30T15:39:22;2.20;99.90
14985;DHT22;7588;62.368;25.902;2022-10-30T15:41:54;2.30;99.90
14985;DHT22;7588;62.368;25.902;2022-10-30T15:44:30;2.20;99.90
14985;DHT22;7588;62.368;25.902;2022-10-30T15:46:59;2.20;99.90
14985;DHT22;7588;62.368;25.902;2022-10-30T15:49:37;2.10;99.90
14985;DHT22;7588;62.368;25.902;2022-10-30T15:52:14;2.10;99.90
14985;DHT22;7588;62.368;25.902;2022-10-30T15:54:43;1.90;99.90
14985;DHT22;7588;62.368;25.902;2022-10-30T15:57:17;2.00;99.90
14985;DHT22;7588;62.368;25.902;2022-10-30T15:59:52;2.00;99.90
14985;DHT22;7588;62.368;25.902;2022-10-30T16:02:22;1.90;99.90
14985;DHT22;7588;62.368;25.902;2022-10-30T16:04:48;1.90;99.90
14985;DHT22;7588;62.368;25.902;2022-10-30T16:07:26;1.90;99.90
14985;DHT22;7588;62.368;25.902;2022-10-30T16:10:02;1.80;99.90
14985;DHT22;7588;62.368;25.902;2022-10-30T16:12:32;1.70;99.90
14985;DHT22;7588;62.368;25.902;2022-10-30T16:15:14;1.60;99.90
14985;DHT22;7588;62.368;25.902;2022-10-30T16:17:41;1.60;99.90
14985;DHT22;7588;62.368;25.902;2022-10-30T16:20:09;1.50;99.90
14985;DHT22;7588;62.368;25.902;2022-10-30T16:22:37;1.50;99.90
14985;DHT22;7588;62.368;25.902;2022-10-30T16:25:07;1.40;99.90
14985;DHT22;7588;62.368;25.902;2022-10-30T16:27:42;1.40;99.90
14985;DHT22;7588;62.368;25.902;2022-10-30T16:30:12;1.40;99.90
14985;DHT22;7588;62.368;25.902;2022-10-30T16:32:39;1.30;99.90
14985;DHT22;7588;62.368;25.902;2022-10-30T16:35:06;1.20;99.90
14985;DHT22;7588;62.368;25.902;2022-10-30T16:37:34;1.10;99.90
14985;DHT22;7588;62.368;25.902;2022-10-30T16:40:21;1.00;99.90
14985;DHT22;7588;62.368;25.902;2022-10-30T16:42:57;0.90;99.90
14985;DHT22;7588;62.368;25.902;2022-10-30T16:47:56;0.90;99.90
14985;DHT22;7588;62.368;25.902;2022-10-30T16:50:32;0.80;99.90
14985;DHT22;7588;62.368;25.902;2022-10-30T16:53:05;0.80;99.90
14985;DHT22;7588;62.368;25.902;2022-10-30T16:55:32;0.80;99.90
14985;DHT22;7588;62.368;25.902;2022-10-30T16:57:59;1.00;99.90
14985;DHT22;7588;62.368;25.902;2022-10-30T17:00:27;1.00;99.90
14985;DHT22;7588;62.368;25.902;2022-10-30T17:02:54;1.00;99.90
14985;DHT22;7588;62.368;25.902;2022-10-30T17:05:28;1.00;99.90
14985;DHT22;7588;62.368;25.902;2022-10-30T17:08:00;1.10;99.90
14985;DHT22;7588;62.368;25.902;2022-10-30T17:10:34;1.10;99.90
14985;DHT22;7588;62.368;25.902;2022-10-30T17:15:56;1.00;99.90
14985;DHT22;7588;62.368;25.902;2022-10-30T17:18:28;1.00;99.90
14985;DHT22;7588;62.368;25.902;2022-10-30T17:21:05;1.00;99.90
14985;DHT22;7588;62.368;25.902;2022-10-30T17:23:31;1.00;99.90
14985;DHT22;7588;62.368;25.902;2022-10-30T17:25:57;1.00;99.90
14985;DHT22;7588;62.368;25.902;2022-10-30T17:28:28;1.00;99.90
14985;DHT22;7588;62.368;25.902;2022-10-30T17:33:47;1.20;99.90
14985;DHT22;7588;62.368;25.902;2022-10-30T17:36:27;1.10;99.90
14985;DHT22;7588;62.368;25.902;2022-10-30T17:38:53;1.10;99.90
14985;DHT22;7588;62.368;25.902;2022-10-30T17:41:19;1.10;99.90
14985;DHT22;7588;62.368;25.902;2022-10-30T17:43:53;1.20;99.90
14985;DHT22;7588;62.368;25.902;2022-10-30T17:46:19;1.20;99.90
14985;DHT22;7588;62.368;25.902;2022-10-30T17:48:45;1.20;99.90
14985;DHT22;7588;62.368;25.902;2022-10-30T17:51:15;1.20;99.90
14985;DHT22;7588;62.368;25.902;2022-10-30T17:53:41;1.20;99.90
14985;DHT22;7588;62.368;25.902;2022-10-30T17:56:24;1.20;99.90
14985;DHT22;7588;62.368;25.902;2022-10-30T17:58:51;1.10;99.90
14985;DHT22;7588;62.368;25.902;2022-10-30T18:01:22;1.10;99.90
14985;DHT22;7588;62.368;25.902;2022-10-30T18:03:49;1.20;99.90
14985;DHT22;7588;62.368;25.902;2022-10-30T18:06:17;1.30;99.90
14985;DHT22;7588;62.368;25.902;2022-10-30T18:08:44;1.20;99.90
14985;DHT22;7588;62.368;25.902;2022-10-30T18:11:12;1.20;99.90
14985;DHT22;7588;62.368;25.902;2022-10-30T18:13:39;1.20;99.90
14985;DHT22;7588;62.368;25.902;2022-10-30T18:16:07;1.20;99.90
14985;DHT22;7588;62.368;25.902;2022-10-30T18:18:34;1.10;99.90
14985;DHT22;7588;62.368;25.902;2022-10-30T18:21:00;1.20;99.90
14985;DHT22;7588;62.368;25.902;2022-10-30T18:23:26;1.10;99.90
14985;DHT22;7588;62.368;25.902;2022-10-30T18:25:52;1.20;99.90
14985;DHT22;7588;62.368;25.902;2022-10-30T18:28:18;1.10;99.90
14985;DHT22;7588;62.368;25.902;2022-10-30T18:30:54;1.00;99.90
14985;DHT22;7588;62.368;25.902;2022-10-30T18:33:26;1.10;99.90
14985;DHT22;7588;62.368;25.902;2022-10-30T18:35:52;1.00;99.90
14985;DHT22;7588;62.368;25.902;2022-10-30T18:38:18;1.00;99.90
14985;DHT22;7588;62.368;25.902;2022-10-30T18:40:46;1.00;99.90
14985;DHT22;7588;62.368;25.902;2022-10-30T18:43:12;1.00;99.90
14985;DHT22;7588;62.368;25.902;2022-10-30T18:45:39;1.00;99.90
14985;DHT22;7588;62.368;25.902;2022-10-30T18:48:06;1.00;99.90
14985;DHT22;7588;62.368;25.902;2022-10-30T18:50:33;1.00;99.90
14985;DHT22;7588;62.368;25.902;2022-10-30T18:52:59;1.10;99.90